sensor_id;sensor_type;location;lat;lon;timestamp;noise_LAeq;noise_LA_min;noise_LA_max;noise_LA01;noise_LA95
40103;Laerm;25814;48.550;9.108;2023-07-13T00:00:36;31.15;29.67;49.23;;
40103;Laerm;25814;48.550;9.108;2023-07-13T00:03:03;30.82;29.59;33.82;;
40103;Laerm;25814;48.550;9.108;2023-07-13T00:05:30;30.89;29.67;37.39;;
40103;Laerm;25814;48.550;9.108;2023-07-13T00:07:56;31.84;29.74;37.37;;
40103;Laerm;25814;48.550;9.108;2023-07-13T00:10:22;30.86;29.49;33.79;;
40103;Laerm;25814;48.550;9.108;2023-07-13T00:12:49;31.04;29.64;46.90;;
40103;Laerm;25814;48.550;9.108;2023-07-13T00:15:23;30.91;29.54;36.46;;
40103;Laerm;25814;48.550;9.108;2023-07-13T00:17:51;30.84;29.72;34.40;;
40103;Laerm;25814;48.550;9.108;2023-07-13T00:20:17;31.12;29.77;44.89;;
40103;Laerm;25814;48.550;9.108;2023-07-13T00:22:44;33.47;29.83;43.89;;
40103;Laerm;25814;48.550;9.108;2023-07-13T00:25:11;31.44;29.80;47.63;;
40103;Laerm;25814;48.550;9.108;2023-07-13T00:27:37;31.04;29.69;34.09;;
40103;Laerm;25814;48.550;9.108;2023-07-13T00:30:04;30.95;29.73;33.88;;
40103;Laerm;25814;48.550;9.108;2023-07-13T00:32:31;30.95;29.70;33.90;;
40103;Laerm;25814;48.550;9.108;2023-07-13T00:34:57;31.06;29.74;46.81;;
40103;Laerm;25814;48.550;9.108;2023-07-13T00:37:25;30.94;29.83;34.14;;
40103;Laerm;25814;48.550;9.108;2023-07-13T00:39:51;30.85;29.38;33.69;;
40103;Laerm;25814;48.550;9.108;2023-07-13T00:42:18;30.87;29.61;42.19;;
40103;Laerm;25814;48.550;9.108;2023-07-13T00:45:04;30.82;29.72;37.99;;
40103;Laerm;25814;48.550;9.108;2023-07-13T00:47:30;30.86;29.70;34.79;;
40103;Laerm;25814;48.550;9.108;2023-07-13T00:49:56;30.97;29.65;47.11;;
40103;Laerm;25814;48.550;9.108;2023-07-13T00:52:23;30.83;29.65;33.72;;
40103;Laerm;25814;48.550;9.108;2023-07-13T00:54:49;31.02;29.61;35.79;;
40103;Laerm;25814;48.550;9.108;2023-07-13T00:57:18;31.28;29.84;37.36;;
40103;Laerm;25814;48.550;9.108;2023-07-13T00:59:52;30.82;29.59;33.59;;
40103;Laerm;25814;48.550;9.108;2023-07-13T01:02:19;30.71;29.70;34.07;;
40103;Laerm;25814;48.550;9.108;2023-07-13T01:04:45;31.72;29.67;46.51;;
40103;Laerm;25814;48.550;9.108;2023-07-13T01:07:12;32.25;29.85;48.09;;
40103;Laerm;25814;48.550;9.108;2023-07-13T01:09:39;30.83;29.65;33.77;;
40103;Laerm;25814;48.550;9.108;2023-07-13T01:12:05;30.73;29.64;34.29;;
40103;Laerm;25814;48.550;9.108;2023-07-13T01:14:32;30.76;29.60;42.42;;
40103;Laerm;25814;48.550;9.108;2023-07-13T01:16:58;31.32;29.70;38.78;;
40103;Laerm;25814;48.550;9.108;2023-07-13T01:19:36;31.93;29.76;39.15;;
40103;Laerm;25814;48.550;9.108;2023-07-13T01:22:23;31.65;29.75;40.02;;
40103;Laerm;25814;48.550;9.108;2023-07-13T01:24:53;30.76;29.68;33.91;;
40103;Laerm;25814;48.550;9.108;2023-07-13T01:27:25;39.29;29.70;57.04;;
40103;Laerm;25814;48.550;9.108;2023-07-13T01:29:52;32.80;29.97;40.90;;
40103;Laerm;25814;48.550;9.108;2023-07-13T01:32:27;30.83;29.80;36.89;;
40103;Laerm;25814;48.550;9.108;2023-07-13T01:34:54;30.95;29.86;34.01;;
40103;Laerm;25814;48.550;9.108;2023-07-13T01:37:20;30.65;29.70;33.43;;
40103;Laerm;25814;48.550;9.108;2023-07-13T01:39:47;30.65;29.65;33.15;;
40103;Laerm;25814;48.550;9.108;2023-07-13T01:42:14;30.68;29.70;33.24;;
40103;Laerm;25814;48.550;9.108;2023-07-13T01:44:40;30.83;29.61;46.64;;
40103;Laerm;25814;48.550;9.108;2023-07-13T01:47:06;30.95;29.62;45.94;;
40103;Laerm;25814;48.550;9.108;2023-07-13T01:49:32;30.76;29.70;36.39;;
40103;Laerm;25814;48.550;9.108;2023-07-13T01:51:58;30.92;29.73;35.51;;
40103;Laerm;25814;48.550;9.108;2023-07-13T01:54:24;31.16;29.66;51.75;;
40103;Laerm;25814;48.550;9.108;2023-07-13T01:56:50;30.83;29.68;43.07;;
40103;Laerm;25814;48.550;9.108;2023-07-13T01:59:16;30.69;29.72;38.57;;
40103;Laerm;25814;48.550;9.108;2023-07-13T02:01:42;30.72;29.72;39.40;;
40103;Laerm;25814;48.550;9.108;2023-07-13T02:04:08;30.69;29.68;34.13;;
40103;Laerm;25814;48.550;9.108;2023-07-13T02:06:36;31.92;29.65;46.88;;
40103;Laerm;25814;48.550;9.108;2023-07-13T02:09:02;31.63;29.68;45.68;;
40103;Laerm;25814;48.550;9.108;2023-07-13T02:11:28;30.76;29.65;33.42;;
40103;Laerm;25814;48.550;9.108;2023-07-13T02:13:59;30.78;29.61;33.34;;
40103;Laerm;25814;48.550;9.108;2023-07-13T02:16:27;30.74;29.80;33.11;;
40103;Laerm;25814;48.550;9.108;2023-07-13T02:18:53;30.91;29.83;45.70;;
40103;Laerm;25814;48.550;9.108;2023-07-13T02:21:22;30.82;29.69;33.63;;
40103;Laerm;25814;48.550;9.108;2023-07-13T02:23:49;30.80;29.76;35.15;;
40103;Laerm;25814;48.550;9.108;2023-07-13T02:26:15;30.84;29.78;33.36;;
40103;Laerm;25814;48.550;9.108;2023-07-13T02:28:42;30.98;29.68;45.09;;
40103;Laerm;25814;48.550;9.108;2023-07-13T02:31:11;30.90;29.90;33.69;;
40103;Laerm;25814;48.550;9.108;2023-07-13T02:33:38;31.79;29.84;37.90;;
40103;Laerm;25814;48.550;9.108;2023-07-13T02:36:04;31.37;30.04;33.58;;
40103;Laerm;25814;48.550;9.108;2023-07-13T02:38:34;31.18;29.95;39.92;;
40103;Laerm;25814;48.550;9.108;2023-07-13T02:41:04;31.07;29.89;33.24;;
40103;Laerm;25814;48.550;9.108;2023-07-13T02:43:31;31.18;29.86;37.63;;
40103;Laerm;25814;48.550;9.108;2023-07-13T02:45:59;31.12;29.89;38.52;;
40103;Laerm;25814;48.550;9.108;2023-07-13T02:48:29;31.68;30.02;45.33;;
40103;Laerm;25814;48.550;9.108;2023-07-13T02:50:55;31.08;29.92;35.00;;
40103;Laerm;25814;48.550;9.108;2023-07-13T02:53:21;33.01;30.00;50.17;;
40103;Laerm;25814;48.550;9.108;2023-07-13T02:55:48;31.74;30.02;40.85;;
40103;Laerm;25814;48.550;9.108;2023-07-13T02:58:14;36.19;30.08;51.02;;
40103;Laerm;25814;48.550;9.108;2023-07-13T03:00:42;37.60;30.07;52.75;;
40103;Laerm;25814;48.550;9.108;2023-07-13T03:03:09;33.38;29.92;44.78;;
40103;Laerm;25814;48.550;9.108;2023-07-13T03:05:37;34.90;29.99;46.05;;
40103;Laerm;25814;48.550;9.108;2023-07-13T03:08:03;33.34;30.25;45.22;;
40103;Laerm;25814;48.550;9.108;2023-07-13T03:10:29;32.36;30.30;40.20;;
40103;Laerm;25814;48.550;9.108;2023-07-13T03:12:55;33.01;30.36;50.05;;
40103;Laerm;25814;48.550;9.108;2023-07-13T03:15:21;40.72;30.53;59.07;;
40103;Laerm;25814;48.550;9.108;2023-07-13T03:17:47;32.04;30.55;43.45;;
40103;Laerm;25814;48.550;9.108;2023-07-13T03:20:13;31.77;30.45;44.50;;
40103;Laerm;25814;48.550;9.108;2023-07-13T03:22:39;31.37;30.37;34.23;;
40103;Laerm;25814;48.550;9.108;2023-07-13T03:25:07;32.13;30.31;35.58;;
40103;Laerm;25814;48.550;9.108;2023-07-13T03:27:33;31.84;30.24;38.93;;
40103;Laerm;25814;48.550;9.108;2023-07-13T03:29:59;32.72;30.74;43.02;;
40103;Laerm;25814;48.550;9.108;2023-07-13T03:32:26;38.19;30.45;52.37;;
40103;Laerm;25814;48.550;9.108;2023-07-13T03:34:52;36.20;30.57;50.98;;
40103;Laerm;25814;48.550;9.108;2023-07-13T03:37:18;36.48;30.55;51.52;;
40103;Laerm;25814;48.550;9.108;2023-07-13T03:39:44;38.27;30.70;51.37;;
40103;Laerm;25814;48.550;9.108;2023-07-13T03:42:10;44.71;30.56;62.76;;
40103;Laerm;25814;48.550;9.108;2023-07-13T03:44:36;44.22;30.38;59.42;;
40103;Laerm;25814;48.550;9.108;2023-07-13T03:47:02;45.06;30.34;63.32;;
40103;Laerm;25814;48.550;9.108;2023-07-13T03:49:28;48.36;30.73;63.49;;
40103;Laerm;25814;48.550;9.108;2023-07-13T03:51:54;49.60;30.82;65.62;;
40103;Laerm;25814;48.550;9.108;2023-07-13T03:54:20;46.38;30.65;65.08;;
40103;Laerm;25814;48.550;9.108;2023-07-13T03:56:46;47.53;30.85;66.36;;
40103;Laerm;25814;48.550;9.108;2023-07-13T03:59:13;56.51;30.94;68.57;;
40103;Laerm;25814;48.550;9.108;2023-07-13T04:01:39;51.78;31.00;67.19;;
40103;Laerm;25814;48.550;9.108;2023-07-13T04:04:05;40.98;30.87;61.43;;
40103;Laerm;25814;48.550;9.108;2023-07-13T04:06:31;45.67;30.72;58.59;;
40103;Laerm;25814;48.550;9.108;2023-07-13T04:09:00;40.78;30.74;61.38;;
40103;Laerm;25814;48.550;9.108;2023-07-13T04:11:29;37.54;30.72;55.76;;
40103;Laerm;25814;48.550;9.108;2023-07-13T04:13:56;33.87;30.55;44.45;;
40103;Laerm;25814;48.550;9.108;2023-07-13T04:16:23;37.29;31.12;48.07;;
40103;Laerm;25814;48.550;9.108;2023-07-13T04:18:50;37.92;30.98;50.74;;
40103;Laerm;25814;48.550;9.108;2023-07-13T04:21:20;36.61;30.35;48.66;;
40103;Laerm;25814;48.550;9.108;2023-07-13T04:23:47;37.34;30.39;50.85;;
40103;Laerm;25814;48.550;9.108;2023-07-13T04:26:13;45.39;30.67;61.73;;
40103;Laerm;25814;48.550;9.108;2023-07-13T04:28:39;47.36;30.93;62.15;;
40103;Laerm;25814;48.550;9.108;2023-07-13T04:31:05;47.28;31.08;61.25;;
40103;Laerm;25814;48.550;9.108;2023-07-13T04:33:31;45.75;30.48;63.39;;
40103;Laerm;25814;48.550;9.108;2023-07-13T04:35:58;41.84;32.14;58.29;;
40103;Laerm;25814;48.550;9.108;2023-07-13T04:38:27;47.95;31.31;64.24;;
40103;Laerm;25814;48.550;9.108;2023-07-13T04:40:59;47.92;30.43;65.34;;
40103;Laerm;25814;48.550;9.108;2023-07-13T04:43:27;41.55;30.38;60.70;;
40103;Laerm;25814;48.550;9.108;2023-07-13T04:45:54;38.54;30.65;60.15;;
40103;Laerm;25814;48.550;9.108;2023-07-13T04:48:21;43.07;31.64;59.20;;
40103;Laerm;25814;48.550;9.108;2023-07-13T04:50:48;37.07;30.72;48.52;;
40103;Laerm;25814;48.550;9.108;2023-07-13T04:53:19;42.26;31.69;62.59;;
40103;Laerm;25814;48.550;9.108;2023-07-13T04:55:45;41.64;31.71;61.83;;
40103;Laerm;25814;48.550;9.108;2023-07-13T04:58:12;38.76;31.97;59.51;;
40103;Laerm;25814;48.550;9.108;2023-07-13T05:00:39;40.94;32.59;61.57;;
40103;Laerm;25814;48.550;9.108;2023-07-13T05:03:05;54.70;32.51;67.40;;
40103;Laerm;25814;48.550;9.108;2023-07-13T05:05:31;51.03;31.43;65.92;;
40103;Laerm;25814;48.550;9.108;2023-07-13T05:07:58;51.71;31.14;65.60;;
40103;Laerm;25814;48.550;9.108;2023-07-13T05:10:24;54.15;31.00;68.16;;
40103;Laerm;25814;48.550;9.108;2023-07-13T05:12:50;40.18;31.49;51.04;;
40103;Laerm;25814;48.550;9.108;2023-07-13T05:15:17;41.29;32.52;55.38;;
40103;Laerm;25814;48.550;9.108;2023-07-13T05:17:47;38.05;32.75;55.14;;
40103;Laerm;25814;48.550;9.108;2023-07-13T05:20:13;40.24;32.09;56.78;;
40103;Laerm;25814;48.550;9.108;2023-07-13T05:22:39;39.46;31.43;53.56;;
40103;Laerm;25814;48.550;9.108;2023-07-13T05:25:07;38.88;31.66;52.15;;
40103;Laerm;25814;48.550;9.108;2023-07-13T05:27:34;36.10;31.33;49.76;;
40103;Laerm;25814;48.550;9.108;2023-07-13T05:30:02;51.00;31.11;68.75;;
40103;Laerm;25814;48.550;9.108;2023-07-13T05:32:29;45.86;31.42;64.50;;
40103;Laerm;25814;48.550;9.108;2023-07-13T05:34:55;38.75;32.15;51.87;;
40103;Laerm;25814;48.550;9.108;2023-07-13T05:37:21;37.48;31.65;51.91;;
40103;Laerm;25814;48.550;9.108;2023-07-13T05:39:47;38.51;31.67;55.33;;
40103;Laerm;25814;48.550;9.108;2023-07-13T05:42:13;37.01;31.24;50.39;;
40103;Laerm;25814;48.550;9.108;2023-07-13T05:44:39;41.53;30.98;55.03;;
40103;Laerm;25814;48.550;9.108;2023-07-13T05:47:05;38.38;31.04;51.62;;
40103;Laerm;25814;48.550;9.108;2023-07-13T05:49:31;40.82;31.10;52.22;;
40103;Laerm;25814;48.550;9.108;2023-07-13T05:51:58;42.65;30.93;62.10;;
40103;Laerm;25814;48.550;9.108;2023-07-13T05:54:24;38.27;30.86;51.37;;
40103;Laerm;25814;48.550;9.108;2023-07-13T05:56:50;40.85;31.65;53.77;;
40103;Laerm;25814;48.550;9.108;2023-07-13T05:59:17;42.54;33.04;56.49;;
40103;Laerm;25814;48.550;9.108;2023-07-13T06:01:43;41.32;32.89;63.02;;
40103;Laerm;25814;48.550;9.108;2023-07-13T06:04:09;42.23;32.84;62.35;;
40103;Laerm;25814;48.550;9.108;2023-07-13T06:06:35;39.74;31.25;53.83;;
40103;Laerm;25814;48.550;9.108;2023-07-13T06:09:02;37.07;30.59;59.05;;
40103;Laerm;25814;48.550;9.108;2023-07-13T06:11:28;34.86;30.39;49.17;;
40103;Laerm;25814;48.550;9.108;2023-07-13T06:13:55;40.30;29.46;65.22;;
40103;Laerm;25814;48.550;9.108;2023-07-13T06:16:22;41.08;30.30;57.04;;
40103;Laerm;25814;48.550;9.108;2023-07-13T06:18:48;36.70;29.07;49.78;;
40103;Laerm;25814;48.550;9.108;2023-07-13T06:21:18;37.81;30.15;53.13;;
40103;Laerm;25814;48.550;9.108;2023-07-13T06:23:46;40.44;30.07;55.70;;
40103;Laerm;25814;48.550;9.108;2023-07-13T06:26:17;39.77;29.91;51.61;;
40103;Laerm;25814;48.550;9.108;2023-07-13T06:28:43;40.85;29.65;50.93;;
40103;Laerm;25814;48.550;9.108;2023-07-13T06:31:11;40.64;30.53;56.55;;
40103;Laerm;25814;48.550;9.108;2023-07-13T06:33:38;38.69;30.49;49.93;;
40103;Laerm;25814;48.550;9.108;2023-07-13T06:36:06;39.71;30.08;50.79;;
40103;Laerm;25814;48.550;9.108;2023-07-13T06:38:33;42.87;30.49;59.98;;
40103;Laerm;25814;48.550;9.108;2023-07-13T06:40:59;44.66;31.63;58.92;;
40103;Laerm;25814;48.550;9.108;2023-07-13T06:43:25;44.68;35.30;51.42;;
40103;Laerm;25814;48.550;9.108;2023-07-13T06:45:55;44.48;35.34;56.93;;
40103;Laerm;25814;48.550;9.108;2023-07-13T06:48:22;42.22;30.87;49.83;;
40103;Laerm;25814;48.550;9.108;2023-07-13T06:50:49;41.99;29.90;48.27;;
40103;Laerm;25814;48.550;9.108;2023-07-13T06:53:18;44.02;32.52;55.06;;
40103;Laerm;25814;48.550;9.108;2023-07-13T06:55:44;40.82;29.47;52.48;;
40103;Laerm;25814;48.550;9.108;2023-07-13T06:58:11;42.71;32.42;52.91;;
40103;Laerm;25814;48.550;9.108;2023-07-13T07:00:37;38.03;29.96;61.99;;
40103;Laerm;25814;48.550;9.108;2023-07-13T07:03:05;32.78;29.84;47.35;;
40103;Laerm;25814;48.550;9.108;2023-07-13T07:05:31;35.82;30.43;51.70;;
40103;Laerm;25814;48.550;9.108;2023-07-13T07:07:58;38.19;32.33;52.80;;
40103;Laerm;25814;48.550;9.108;2023-07-13T07:10:25;34.75;31.27;45.01;;
40103;Laerm;25814;48.550;9.108;2023-07-13T07:12:51;38.38;29.87;50.84;;
40103;Laerm;25814;48.550;9.108;2023-07-13T07:15:18;39.01;29.80;51.58;;
40103;Laerm;25814;48.550;9.108;2023-07-13T07:17:44;39.47;30.20;50.63;;
40103;Laerm;25814;48.550;9.108;2023-07-13T07:20:10;39.22;30.31;52.05;;
40103;Laerm;25814;48.550;9.108;2023-07-13T07:22:36;40.69;30.11;52.08;;
40103;Laerm;25814;48.550;9.108;2023-07-13T07:25:03;34.84;30.98;46.77;;
40103;Laerm;25814;48.550;9.108;2023-07-13T07:27:29;34.94;30.50;43.99;;
40103;Laerm;25814;48.550;9.108;2023-07-13T07:29:55;33.90;29.93;46.61;;
40103;Laerm;25814;48.550;9.108;2023-07-13T07:32:23;32.89;29.91;47.46;;
40103;Laerm;25814;48.550;9.108;2023-07-13T07:34:49;36.18;30.00;51.92;;
40103;Laerm;25814;48.550;9.108;2023-07-13T07:37:16;38.37;29.67;50.98;;
40103;Laerm;25814;48.550;9.108;2023-07-13T07:39:44;39.27;29.50;50.66;;
40103;Laerm;25814;48.550;9.108;2023-07-13T07:42:10;39.63;29.94;50.89;;
40103;Laerm;25814;48.550;9.108;2023-07-13T07:44:38;35.65;30.17;49.68;;
40103;Laerm;25814;48.550;9.108;2023-07-13T07:47:04;33.97;30.16;46.95;;
40103;Laerm;25814;48.550;9.108;2023-07-13T07:49:30;35.94;29.96;48.49;;
40103;Laerm;25814;48.550;9.108;2023-07-13T07:51:56;39.17;29.99;48.91;;
40103;Laerm;25814;48.550;9.108;2023-07-13T07:54:22;36.36;29.45;48.83;;
40103;Laerm;25814;48.550;9.108;2023-07-13T07:56:48;37.95;29.42;51.07;;
40103;Laerm;25814;48.550;9.108;2023-07-13T07:59:14;41.44;29.86;62.17;;
40103;Laerm;25814;48.550;9.108;2023-07-13T08:01:40;38.53;29.81;50.55;;
40103;Laerm;25814;48.550;9.108;2023-07-13T08:04:06;53.07;31.85;72.57;;
40103;Laerm;25814;48.550;9.108;2023-07-13T08:06:33;37.14;30.11;51.04;;
40103;Laerm;25814;48.550;9.108;2023-07-13T08:09:00;39.37;29.85;55.39;;
40103;Laerm;25814;48.550;9.108;2023-07-13T08:11:27;33.18;29.67;52.20;;
40103;Laerm;25814;48.550;9.108;2023-07-13T08:13:54;36.84;30.38;50.38;;
40103;Laerm;25814;48.550;9.108;2023-07-13T08:16:20;38.69;30.18;58.79;;
40103;Laerm;25814;48.550;9.108;2023-07-13T08:18:46;34.39;29.64;56.59;;
40103;Laerm;25814;48.550;9.108;2023-07-13T08:21:12;34.36;29.73;49.78;;
40103;Laerm;25814;48.550;9.108;2023-07-13T08:23:38;33.58;29.29;42.75;;
40103;Laerm;25814;48.550;9.108;2023-07-13T08:26:04;31.88;29.45;44.29;;
40103;Laerm;25814;48.550;9.108;2023-07-13T08:28:31;32.04;29.96;40.12;;
40103;Laerm;25814;48.550;9.108;2023-07-13T08:31:05;32.74;29.71;47.07;;
40103;Laerm;25814;48.550;9.108;2023-07-13T08:33:35;33.75;29.90;45.80;;
40103;Laerm;25814;48.550;9.108;2023-07-13T08:36:01;35.78;30.02;53.63;;
40103;Laerm;25814;48.550;9.108;2023-07-13T08:38:27;33.37;29.89;53.21;;
40103;Laerm;25814;48.550;9.108;2023-07-13T08:40:55;33.75;30.07;50.55;;
40103;Laerm;25814;48.550;9.108;2023-07-13T08:43:27;36.45;32.53;46.66;;
40103;Laerm;25814;48.550;9.108;2023-07-13T08:49:03;35.75;31.85;45.32;;
40103;Laerm;25814;48.550;9.108;2023-07-13T08:51:42;33.50;30.37;40.78;;
40103;Laerm;25814;48.550;9.108;2023-07-13T08:54:34;33.92;29.72;44.76;;
40103;Laerm;25814;48.550;9.108;2023-07-13T08:57:11;34.80;29.97;51.52;;
40103;Laerm;25814;48.550;9.108;2023-07-13T08:59:38;37.61;29.75;51.26;;
40103;Laerm;25814;48.550;9.108;2023-07-13T09:02:23;39.31;30.79;59.99;;
40103;Laerm;25814;48.550;9.108;2023-07-13T09:04:57;37.18;31.18;54.59;;
40103;Laerm;25814;48.550;9.108;2023-07-13T09:10:46;33.67;29.91;51.38;;
40103;Laerm;25814;48.550;9.108;2023-07-13T09:16:22;34.44;30.42;53.29;;
40103;Laerm;25814;48.550;9.108;2023-07-13T09:18:51;36.30;31.57;57.45;;
40103;Laerm;25814;48.550;9.108;2023-07-13T09:21:25;35.01;31.07;44.92;;
40103;Laerm;25814;48.550;9.108;2023-07-13T09:24:00;38.53;32.43;49.64;;
40103;Laerm;25814;48.550;9.108;2023-07-13T09:26:29;36.14;30.40;44.75;;
40103;Laerm;25814;48.550;9.108;2023-07-13T09:29:20;34.24;30.22;47.51;;
40103;Laerm;25814;48.550;9.108;2023-07-13T09:31:54;35.84;30.48;51.00;;
40103;Laerm;25814;48.550;9.108;2023-07-13T09:34:25;33.04;29.90;49.02;;
40103;Laerm;25814;48.550;9.108;2023-07-13T09:36:51;41.51;31.01;51.62;;
40103;Laerm;25814;48.550;9.108;2023-07-13T09:39:30;34.52;30.42;46.23;;
40103;Laerm;25814;48.550;9.108;2023-07-13T09:42:00;49.54;29.85;61.51;;
40103;Laerm;25814;48.550;9.108;2023-07-13T09:44:38;47.04;29.72;61.90;;
40103;Laerm;25814;48.550;9.108;2023-07-13T09:47:16;50.76;29.63;68.29;;
40103;Laerm;25814;48.550;9.108;2023-07-13T09:49:42;53.49;30.02;70.15;;
40103;Laerm;25814;48.550;9.108;2023-07-13T09:52:14;47.74;30.52;66.10;;
40103;Laerm;25814;48.550;9.108;2023-07-13T09:54:45;34.81;29.88;45.62;;
40103;Laerm;25814;48.550;9.108;2023-07-13T09:57:18;36.74;29.60;50.10;;
40103;Laerm;25814;48.550;9.108;2023-07-13T09:59:50;36.05;30.08;48.67;;
40103;Laerm;25814;48.550;9.108;2023-07-13T10:02:29;36.09;30.55;53.79;;
40103;Laerm;25814;48.550;9.108;2023-07-13T10:05:06;34.84;30.48;47.06;;
40103;Laerm;25814;48.550;9.108;2023-07-13T10:07:43;34.33;30.46;55.57;;
40103;Laerm;25814;48.550;9.108;2023-07-13T10:10:20;33.29;30.28;44.37;;
40103;Laerm;25814;48.550;9.108;2023-07-13T10:12:49;32.23;30.10;40.31;;
40103;Laerm;25814;48.550;9.108;2023-07-13T10:15:20;32.54;30.23;41.84;;
40103;Laerm;25814;48.550;9.108;2023-07-13T10:17:48;42.18;32.01;54.40;;
40103;Laerm;25814;48.550;9.108;2023-07-13T10:20:15;35.46;30.45;45.35;;
40103;Laerm;25814;48.550;9.108;2023-07-13T10:22:53;32.53;29.86;43.95;;
40103;Laerm;25814;48.550;9.108;2023-07-13T10:25:23;34.02;29.87;47.49;;
40103;Laerm;25814;48.550;9.108;2023-07-13T10:27:53;33.88;30.65;44.03;;
40103;Laerm;25814;48.550;9.108;2023-07-13T10:30:25;34.18;30.25;43.69;;
40103;Laerm;25814;48.550;9.108;2023-07-13T10:32:53;34.44;29.94;45.75;;
40103;Laerm;25814;48.550;9.108;2023-07-13T10:35:22;36.32;30.89;49.45;;
40103;Laerm;25814;48.550;9.108;2023-07-13T10:37:58;36.82;30.96;49.96;;
40103;Laerm;25814;48.550;9.108;2023-07-13T10:43:43;36.84;30.58;63.36;;
40103;Laerm;25814;48.550;9.108;2023-07-13T10:46:15;34.68;30.13;48.58;;
40103;Laerm;25814;48.550;9.108;2023-07-13T10:48:46;34.36;30.26;46.08;;
40103;Laerm;25814;48.550;9.108;2023-07-13T10:51:17;34.59;30.54;44.18;;
40103;Laerm;25814;48.550;9.108;2023-07-13T10:53:43;36.78;29.90;46.97;;
40103;Laerm;25814;48.550;9.108;2023-07-13T10:59:02;33.19;30.05;45.87;;
40103;Laerm;25814;48.550;9.108;2023-07-13T11:04:20;35.14;30.61;42.47;;
40103;Laerm;25814;48.550;9.108;2023-07-13T11:06:48;32.06;29.72;41.32;;
40103;Laerm;25814;48.550;9.108;2023-07-13T11:11:47;34.32;30.30;43.90;;
40103;Laerm;25814;48.550;9.108;2023-07-13T11:14:43;35.22;30.11;54.33;;
40103;Laerm;25814;48.550;9.108;2023-07-13T11:20:23;34.36;30.55;46.21;;
40103;Laerm;25814;48.550;9.108;2023-07-13T11:23:07;32.99;29.99;43.66;;
40103;Laerm;25814;48.550;9.108;2023-07-13T11:25:36;37.36;30.04;51.36;;
40103;Laerm;25814;48.550;9.108;2023-07-13T11:30:39;34.67;30.36;51.41;;
40103;Laerm;25814;48.550;9.108;2023-07-13T11:33:10;35.98;30.87;45.29;;
40103;Laerm;25814;48.550;9.108;2023-07-13T11:38:47;37.97;30.88;54.95;;
40103;Laerm;25814;48.550;9.108;2023-07-13T11:41:19;40.81;30.54;58.85;;
40103;Laerm;25814;48.550;9.108;2023-07-13T11:43:51;35.13;30.65;49.21;;
40103;Laerm;25814;48.550;9.108;2023-07-13T11:46:24;38.02;29.51;62.51;;
40103;Laerm;25814;48.550;9.108;2023-07-13T11:48:51;33.81;30.42;53.03;;
40103;Laerm;25814;48.550;9.108;2023-07-13T11:51:21;40.86;32.19;53.01;;
40103;Laerm;25814;48.550;9.108;2023-07-13T11:53:51;34.60;30.10;46.98;;
40103;Laerm;25814;48.550;9.108;2023-07-13T11:56:18;34.69;31.14;48.42;;
40103;Laerm;25814;48.550;9.108;2023-07-13T11:58:50;33.74;30.46;51.25;;
40103;Laerm;25814;48.550;9.108;2023-07-13T12:01:21;51.25;30.19;69.32;;
40103;Laerm;25814;48.550;9.108;2023-07-13T12:03:49;33.62;30.02;50.05;;
40103;Laerm;25814;48.550;9.108;2023-07-13T12:06:30;42.63;29.93;66.57;;
40103;Laerm;25814;48.550;9.108;2023-07-13T12:09:02;38.50;30.56;56.36;;
40103;Laerm;25814;48.550;9.108;2023-07-13T12:11:35;45.97;31.87;72.26;;
40103;Laerm;25814;48.550;9.108;2023-07-13T12:14:03;33.79;30.15;45.09;;
40103;Laerm;25814;48.550;9.108;2023-07-13T12:16:31;31.78;29.74;41.56;;
40103;Laerm;25814;48.550;9.108;2023-07-13T12:19:02;34.06;30.02;45.71;;
40103;Laerm;25814;48.550;9.108;2023-07-13T12:21:38;36.05;31.95;48.52;;
40103;Laerm;25814;48.550;9.108;2023-07-13T12:24:17;35.65;30.36;46.31;;
40103;Laerm;25814;48.550;9.108;2023-07-13T12:26:44;37.40;31.16;61.59;;
40103;Laerm;25814;48.550;9.108;2023-07-13T12:29:16;33.17;30.42;42.43;;
40103;Laerm;25814;48.550;9.108;2023-07-13T12:31:45;34.83;30.73;50.33;;
40103;Laerm;25814;48.550;9.108;2023-07-13T12:34:14;37.75;30.87;46.84;;
40103;Laerm;25814;48.550;9.108;2023-07-13T12:37:08;35.58;30.39;42.78;;
40103;Laerm;25814;48.550;9.108;2023-07-13T12:39:45;33.83;30.48;41.66;;
40103;Laerm;25814;48.550;9.108;2023-07-13T12:42:20;35.05;30.23;56.99;;
40103;Laerm;25814;48.550;9.108;2023-07-13T12:44:49;39.01;30.43;62.91;;
40103;Laerm;25814;48.550;9.108;2023-07-13T12:47:16;34.87;30.48;44.80;;
40103;Laerm;25814;48.550;9.108;2023-07-13T12:49:49;36.36;31.48;61.66;;
40103;Laerm;25814;48.550;9.108;2023-07-13T12:52:21;36.06;30.92;49.89;;
40103;Laerm;25814;48.550;9.108;2023-07-13T12:54:57;40.82;29.97;52.13;;
40103;Laerm;25814;48.550;9.108;2023-07-13T12:57:24;42.02;35.74;51.22;;
40103;Laerm;25814;48.550;9.108;2023-07-13T12:59:54;40.57;33.46;47.94;;
40103;Laerm;25814;48.550;9.108;2023-07-13T13:02:33;40.12;33.40;48.07;;
40103;Laerm;25814;48.550;9.108;2023-07-13T13:05:01;45.50;33.03;67.96;;
40103;Laerm;25814;48.550;9.108;2023-07-13T13:07:29;36.70;32.18;59.48;;
40103;Laerm;25814;48.550;9.108;2023-07-13T13:09:55;36.31;31.76;44.55;;
40103;Laerm;25814;48.550;9.108;2023-07-13T13:12:22;35.96;31.84;52.86;;
40103;Laerm;25814;48.550;9.108;2023-07-13T13:14:51;36.26;32.85;43.65;;
40103;Laerm;25814;48.550;9.108;2023-07-13T13:17:24;35.81;30.93;45.88;;
40103;Laerm;25814;48.550;9.108;2023-07-13T13:19:52;41.55;30.24;60.24;;
40103;Laerm;25814;48.550;9.108;2023-07-13T13:22:20;38.99;30.79;60.22;;
40103;Laerm;25814;48.550;9.108;2023-07-13T13:24:46;34.78;30.50;49.42;;
40103;Laerm;25814;48.550;9.108;2023-07-13T13:27:21;36.58;31.17;43.88;;
40103;Laerm;25814;48.550;9.108;2023-07-13T13:29:51;34.21;29.46;45.95;;
40103;Laerm;25814;48.550;9.108;2023-07-13T13:32:18;35.49;29.83;45.56;;
40103;Laerm;25814;48.550;9.108;2023-07-13T13:34:44;42.21;31.05;56.28;;
40103;Laerm;25814;48.550;9.108;2023-07-13T13:37:20;39.38;33.71;50.38;;
40103;Laerm;25814;48.550;9.108;2023-07-13T13:39:47;36.27;30.67;49.29;;
40103;Laerm;25814;48.550;9.108;2023-07-13T13:42:13;39.46;31.00;55.59;;
40103;Laerm;25814;48.550;9.108;2023-07-13T13:44:40;39.46;31.43;55.98;;
40103;Laerm;25814;48.550;9.108;2023-07-13T13:47:38;39.92;31.04;54.59;;
40103;Laerm;25814;48.550;9.108;2023-07-13T13:50:25;39.09;30.97;59.93;;
40103;Laerm;25814;48.550;9.108;2023-07-13T13:52:51;39.58;32.65;58.91;;
40103;Laerm;25814;48.550;9.108;2023-07-13T13:55:19;38.31;31.66;58.47;;
40103;Laerm;25814;48.550;9.108;2023-07-13T13:57:46;35.39;30.97;47.77;;
40103;Laerm;25814;48.550;9.108;2023-07-13T14:00:14;41.11;31.25;54.12;;
40103;Laerm;25814;48.550;9.108;2023-07-13T14:02:43;38.96;30.68;52.90;;
40103;Laerm;25814;48.550;9.108;2023-07-13T14:05:15;39.10;30.72;49.08;;
40103;Laerm;25814;48.550;9.108;2023-07-13T14:07:41;39.37;31.99;55.65;;
40103;Laerm;25814;48.550;9.108;2023-07-13T14:10:14;38.04;31.30;47.92;;
40103;Laerm;25814;48.550;9.108;2023-07-13T14:12:42;41.27;33.07;49.57;;
40103;Laerm;25814;48.550;9.108;2023-07-13T14:15:20;48.80;35.18;54.61;;
40103;Laerm;25814;48.550;9.108;2023-07-13T14:17:46;50.87;45.36;63.42;;
40103;Laerm;25814;48.550;9.108;2023-07-13T14:20:17;53.18;47.85;59.84;;
40103;Laerm;25814;48.550;9.108;2023-07-13T14:22:43;53.76;48.90;62.55;;